Chicago, IL (60649)

6:17 AM CDT on August 30, 2014 (GMT -0500)
U.S. Cellular Field | Change Station
CLOSE
Current Station
Personal Weather Station
Location: Chicago, IL
Elevation: 594 ft
Nearby Weather Stations

Elev 594 ft 41.83 °N, 87.64 °W | Updated 11 seconds ago

Overcast
Overcast
75.0 °F
Feels Like 75 °F
N
0.0
Wind Variable Wind from South
Gusts 6.0 mph

Today
High -- | Low -- °F
--% Chance of Precip.
Yesterday
High -- | Low -- °F
Precip. -- in
6:14 AM 7:26 PM
Waxing Crescent, 21% visible
Pressure 29.82 in
Visibility 9.0 miles
Clouds Scattered Clouds 2200 ft
Mostly Cloudy 14000 ft
Overcast 25000 ft
Heat Index 75 °F
Dew Point 70 °F
Humidity 86%
Rainfall 0.00 in
Snow Depth Not available.
UV 0 out of 12
Pollen 4.70 out of 12
Ozone Good
PM2.5 Moderate
Flu Activity Not available.
METAR KMDW 301051Z 21008KT 9SM SCT022 BKN140 OVC250 24/21 A2985 RMK AO2 SLP098 T02390211

More Conditions Fewer Conditions

Pressure 29.82 in
Visibility 9.0 miles
Clouds Scattered Clouds 2200 ft
Mostly Cloudy 14000 ft
Overcast 25000 ft
Heat Index 75 °F
Dew Point 70 °F
Humidity 86%
Rainfall 0.00 in
Snow Depth Not available.
UV 0 out of 12
Pollen 4.70 out of 12
Ozone Good
PM2.5 Moderate
Flu Activity Not available.
METAR KMDW 301051Z 21008KT 9SM SCT022 BKN140 OVC250 24/21 A2985 RMK AO2 SLP098 T02390211

More Conditions Fewer Conditions

10-Day Weather Forecast

Almanac

Astronomy

Aug. 30, 2014 Rise Set
Actual Time 6:14 AM CDT 7:26 PM CDT
Civil Twilight 5:45 AM CDT 7:55 PM CDT
Nautical Twilight 5:10 AM CDT 8:29 PM CDT
Astronomical Twilight 4:34 AM CDT 9:05 PM CDT
Moon 11:05 AM CDT 9:56 PM CDT
Length of Visible Light 14h 10m
Length of Day
13h 12m
Tomorrow will be 2m 41s shorter.
Waxing Crescent, 21% of the Moon is Illuminated
Today
Waxing Crescent
Sep 2
First Quarter
Sep 8
Full
Sep 15
Last Quarter
Sep 24
New

Today's Extremes

State Highs State Lows

Community

WunderPhotos

Upload Photos

1,748,492 photos uploaded!

WunderBlogs® & News

By Dr. Jeff Masters
Director of Meteorology, Weather Underground
By Kari Strenfel
Meteorologist, Weather Underground
By Christopher C. Burt
Weather Historian, Weather Underground
August 30, 2014
August 30, 2014
August 30, 2014

Nearby

Air Quality

  Air Quality AQ Index Pollutant
Yesterday Moderate
PM2.5
Yesterday Good
OZONE
Current Moderate
PM2.5
Current Good
OZONE
Saturday Moderate
PM2.5
Saturday Good
OZONE
Sunday Moderate
OZONE
Sunday Good
PM2.5
Monday Moderate
PM2.5
Monday Good
OZONE
Tuesday Good
OZONE
Tuesday Good
PM2.5

Snow Depth

Station Depth Elevation
No new snow has been reported.

Earthquake Activity

City Distance Mag. Time & Date
No recent earthquake activity has been reported nearby.
Minimum magnitude displayed is 2.5.

Coastal Water Temperatures

Place Temperature
No Stations Reporting

Nearby Weather Stations